createdAt,value
2023-02-16T00:00:08.854Z,42.09
2023-02-16T00:12:33.028Z,42.03
2023-02-16T00:15:36.825Z,42.10
2023-02-16T00:18:20.541Z,42.21
2023-02-16T00:27:28.568Z,42.02
2023-02-16T00:30:49.136Z,41.91
2023-02-16T00:37:10.518Z,42.26
2023-02-16T00:40:13.738Z,42.10
2023-02-16T00:43:38.276Z,42.26
2023-02-16T00:47:13.043Z,42.16
2023-02-16T00:54:17.888Z,42.05
2023-02-16T00:56:48.267Z,42.07
2023-02-16T00:59:41.585Z,42.08
2023-02-16T01:05:07.662Z,42.26
2023-02-16T01:11:24.269Z,42.11
2023-02-16T01:14:26.936Z,42.28
2023-02-16T01:16:57.015Z,42.30
2023-02-16T01:19:56.679Z,42.08
2023-02-16T01:25:37.339Z,42.03
2023-02-16T01:28:43.774Z,41.98
2023-02-16T01:32:14.358Z,42.01
2023-02-16T01:34:39.473Z,42.01
2023-02-16T01:37:51.715Z,42.18
2023-02-16T01:42:56.978Z,42.17
2023-02-16T01:45:32.850Z,42.14
2023-02-16T01:48:09.824Z,42.09
2023-02-16T01:50:50.209Z,42.03
2023-02-16T01:53:32.219Z,42.15
2023-02-16T01:56:07.013Z,42.00
2023-02-16T01:58:54.953Z,42.06
2023-02-16T02:01:38.502Z,42.01
2023-02-16T02:04:32.793Z,42.03
2023-02-16T02:07:01.255Z,41.91
2023-02-16T02:09:38.830Z,41.83
2023-02-16T02:12:30.079Z,41.88
2023-02-16T02:14:56.644Z,42.01
2023-02-16T02:17:23.350Z,41.95
2023-02-16T02:20:08.582Z,42.12
2023-02-16T02:23:03.508Z,42.17
2023-02-16T02:25:44.779Z,42.15
2023-02-16T02:28:17.363Z,42.12
2023-02-16T02:31:04.792Z,42.18
2023-02-16T02:33:57.736Z,42.27
2023-02-16T02:36:40.720Z,42.28
2023-02-16T02:39:38.315Z,42.09
2023-02-16T02:42:10.810Z,42.22
2023-02-16T02:44:54.973Z,42.15
2023-02-16T02:47:23.943Z,42.04
2023-02-16T02:50:05.938Z,42.06
2023-02-16T02:52:32.541Z,42.24
2023-02-16T02:55:17.590Z,41.91
2023-02-16T02:58:04.544Z,42.48
2023-02-16T03:00:47.447Z,42.07
2023-02-16T03:03:34.146Z,41.86
2023-02-16T03:06:03.717Z,42.13
2023-02-16T03:08:32.139Z,42.07
2023-02-16T03:11:30.876Z,42.14
2023-02-16T03:14:17.644Z,41.93
2023-02-16T03:17:21.285Z,41.93
2023-02-16T03:20:06.946Z,42.09
2023-02-16T03:22:52.161Z,42.05
2023-02-16T03:25:48.468Z,42.21
2023-02-16T03:28:33.642Z,42.08
2023-02-16T03:31:04.614Z,42.10
2023-02-16T03:33:31.459Z,42.00
2023-02-16T03:35:58.167Z,42.20
2023-02-16T03:38:33.596Z,42.17
2023-02-16T03:41:00.266Z,42.69
2023-02-16T03:43:31.739Z,42.02
2023-02-16T03:45:58.396Z,42.15
2023-02-16T03:48:27.531Z,42.21
2023-02-16T03:50:54.320Z,42.15
2023-02-16T03:53:20.995Z,42.09
2023-02-16T03:55:50.253Z,42.04
2023-02-16T03:58:20.399Z,41.86
2023-02-16T04:00:47.023Z,41.93
2023-02-16T04:03:13.992Z,42.08
2023-02-16T04:05:40.654Z,41.92
2023-02-16T04:08:11.228Z,42.38
2023-02-16T04:10:42.974Z,42.01
2023-02-16T04:13:12.699Z,42.13
2023-02-16T04:15:39.485Z,41.99
2023-02-16T04:18:06.262Z,41.89
2023-02-16T04:20:33.631Z,42.08
2023-02-16T04:23:02.294Z,42.09
2023-02-16T04:25:29.076Z,42.11
2023-02-16T04:27:55.745Z,42.06
2023-02-16T04:30:28.259Z,42.12
2023-02-16T04:32:55.132Z,42.08
2023-02-16T04:35:21.922Z,42.33
2023-02-16T04:37:48.616Z,42.10
2023-02-16T04:40:19.413Z,42.30
2023-02-16T04:42:46.060Z,42.52
2023-02-16T04:45:12.798Z,42.15
2023-02-16T04:47:39.289Z,42.61
2023-02-16T04:50:06.596Z,42.26
2023-02-16T04:52:34.284Z,41.76
2023-02-16T04:55:00.894Z,42.11
2023-02-16T04:57:27.523Z,42.30
2023-02-16T04:59:53.998Z,42.00
2023-02-16T05:02:20.570Z,42.23
2023-02-16T05:04:47.147Z,41.87
2023-02-16T05:07:13.667Z,42.35
2023-02-16T05:09:40.213Z,42.30
2023-02-16T05:12:25.101Z,42.05
2023-02-16T05:14:51.749Z,42.33
2023-02-16T05:17:22.364Z,42.02
2023-02-16T05:19:50.585Z,41.91
2023-02-16T05:22:17.258Z,41.86
2023-02-16T05:24:43.891Z,41.77
2023-02-16T05:27:17.770Z,41.77
2023-02-16T05:29:44.250Z,41.92
2023-02-16T05:32:10.784Z,41.44
2023-02-16T05:34:37.434Z,41.53
2023-02-16T05:37:03.974Z,41.52
2023-02-16T05:39:30.617Z,40.27
2023-02-16T05:41:57.139Z,38.91
2023-02-16T05:44:23.620Z,38.46
2023-02-16T05:46:50.188Z,37.55
2023-02-16T05:49:17.194Z,36.87
2023-02-16T05:51:43.932Z,36.26
2023-02-16T05:54:17.513Z,36.15
2023-02-16T05:56:48.609Z,35.79
2023-02-16T05:59:15.939Z,36.18
2023-02-16T06:01:42.796Z,36.36
2023-02-16T06:04:10.198Z,36.95
2023-02-16T06:06:37.666Z,37.35
2023-02-16T06:09:05.650Z,37.56
2023-02-16T06:11:38.138Z,37.98
2023-02-16T06:14:10.087Z,38.27
2023-02-16T06:16:37.692Z,38.54
2023-02-16T06:19:04.380Z,38.63
2023-02-16T06:21:30.899Z,38.76
2023-02-16T06:23:57.403Z,38.86
2023-02-16T06:26:24.200Z,38.78
2023-02-16T06:28:50.767Z,38.53
2023-02-16T06:31:17.435Z,38.94
2023-02-16T06:33:44.122Z,39.04
2023-02-16T06:36:10.777Z,38.77
2023-02-16T06:38:37.287Z,39.02
2023-02-16T06:41:04.256Z,38.96
2023-02-16T06:43:31.017Z,38.77
2023-02-16T06:45:57.572Z,39.23
2023-02-16T06:48:24.094Z,39.10
2023-02-16T06:50:50.913Z,39.06
2023-02-16T06:53:17.488Z,39.07
2023-02-16T06:55:44.035Z,39.26
2023-02-16T06:58:10.642Z,38.91
2023-02-16T07:00:37.247Z,38.67
2023-02-16T07:03:03.902Z,37.62
2023-02-16T07:05:30.620Z,37.66
2023-02-16T07:07:57.317Z,37.93
2023-02-16T07:10:23.807Z,38.51
2023-02-16T07:12:50.371Z,38.39
2023-02-16T07:15:16.885Z,38.63
2023-02-16T07:17:43.353Z,38.80
2023-02-16T07:20:12.594Z,39.08
2023-02-16T07:22:39.126Z,38.96
2023-02-16T07:25:06.021Z,39.18
2023-02-16T07:27:32.525Z,39.48
2023-02-16T07:29:59.117Z,38.96
2023-02-16T07:32:25.776Z,39.05
2023-02-16T07:34:52.351Z,38.79
2023-02-16T07:37:19.583Z,38.91
2023-02-16T07:39:46.056Z,38.88
2023-02-16T07:42:12.635Z,39.08
2023-02-16T07:44:39.171Z,39.13
2023-02-16T07:47:05.696Z,39.17
2023-02-16T07:49:32.366Z,39.09
2023-02-16T07:51:58.948Z,39.44
2023-02-16T07:54:25.537Z,39.36
2023-02-16T07:56:52.049Z,39.34
2023-02-16T07:59:18.643Z,39.68
2023-02-16T08:01:45.197Z,39.57
2023-02-16T08:04:11.871Z,39.58
2023-02-16T08:06:38.442Z,39.58
2023-02-16T08:09:04.988Z,39.65
2023-02-16T08:11:31.733Z,39.50
2023-02-16T08:14:01.753Z,39.51
2023-02-16T08:16:28.735Z,39.26
2023-02-16T08:18:56.305Z,39.52
2023-02-16T08:21:24.063Z,39.43
2023-02-16T08:24:01.605Z,39.61
2023-02-16T08:26:30.022Z,39.54
2023-02-16T08:28:57.099Z,39.40
2023-02-16T08:31:25.442Z,39.45
2023-02-16T08:33:52.974Z,39.39
2023-02-16T08:36:23.619Z,37.75
2023-02-16T08:38:50.951Z,37.24
2023-02-16T08:41:18.792Z,38.07
2023-02-16T08:43:45.856Z,38.45
2023-02-16T08:46:18.601Z,38.35
2023-02-16T08:48:45.480Z,38.98
2023-02-16T08:51:19.389Z,38.74
2023-02-16T08:53:46.637Z,38.72
2023-02-16T08:56:14.238Z,38.63
2023-02-16T08:58:40.975Z,38.63
2023-02-16T09:01:08.263Z,38.73
2023-02-16T09:03:38.503Z,38.73
2023-02-16T09:06:05.903Z,38.94
2023-02-16T09:08:37.501Z,39.02
2023-02-16T09:11:08.950Z,38.99
2023-02-16T09:13:36.135Z,39.03
2023-02-16T09:16:04.624Z,39.05
2023-02-16T09:18:33.098Z,39.08
2023-02-16T09:21:04.510Z,39.32
2023-02-16T09:23:31.210Z,39.15
2023-02-16T09:25:59.107Z,39.22
2023-02-16T09:28:25.627Z,39.40
2023-02-16T09:30:54.383Z,39.23
2023-02-16T09:33:21.770Z,39.25
2023-02-16T09:35:48.426Z,39.10
2023-02-16T09:38:16.811Z,39.16
2023-02-16T09:40:44.090Z,39.29
2023-02-16T09:43:33.208Z,39.13
2023-02-16T09:45:59.845Z,39.35
2023-02-16T09:48:37.708Z,39.19
2023-02-16T09:51:05.420Z,39.20
2023-02-16T09:53:39.976Z,39.23
2023-02-16T09:56:29.312Z,39.30
2023-02-16T09:59:16.959Z,39.42
2023-02-16T10:02:20.482Z,39.23
2023-02-16T10:04:58.755Z,39.31
2023-02-16T10:07:46.811Z,39.30
2023-02-16T10:10:15.472Z,39.32
2023-02-16T10:12:46.146Z,39.43
2023-02-16T10:15:22.319Z,39.40
2023-02-16T10:17:56.005Z,39.33
2023-02-16T10:45:53.278Z,39.83
2023-02-16T10:48:23.847Z,39.64
2023-02-16T10:51:03.867Z,39.80
2023-02-16T10:53:43.890Z,39.74
2023-02-16T10:56:31.655Z,39.68
2023-02-16T10:58:58.208Z,39.63
2023-02-16T11:01:34.643Z,39.64
2023-02-16T11:04:01.352Z,39.85
2023-02-16T11:06:29.079Z,39.77
2023-02-16T11:08:58.054Z,39.63
2023-02-16T11:11:28.639Z,39.64
2023-02-16T11:14:00.374Z,39.66
2023-02-16T11:16:26.918Z,39.84
2023-02-16T11:18:57.342Z,39.77
2023-02-16T11:21:58.629Z,39.62
2023-02-16T11:24:29.344Z,39.80
2023-02-16T11:27:06.825Z,39.77
2023-02-16T11:29:33.640Z,39.79
2023-02-16T11:32:01.919Z,39.75
2023-02-16T11:34:33.655Z,39.70
2023-02-16T11:37:06.074Z,39.66
2023-02-16T11:55:43.248Z,39.68
2023-02-16T11:58:25.343Z,39.77
2023-02-16T12:01:47.192Z,39.56
2023-02-16T12:04:42.176Z,39.70
2023-02-16T12:07:30.603Z,39.69
2023-02-16T12:10:00.331Z,39.80
2023-02-16T12:12:42.502Z,39.83
2023-02-16T12:15:25.810Z,39.52
2023-02-16T12:18:05.233Z,39.51
2023-02-16T12:20:50.535Z,39.51
2023-02-16T12:23:19.342Z,39.74
2023-02-16T12:26:33.140Z,39.84
2023-02-16T12:29:24.136Z,39.82
2023-02-16T12:32:12.604Z,40.13
2023-02-16T12:35:01.619Z,40.03
2023-02-16T12:37:39.815Z,40.21
2023-02-16T12:48:31.561Z,40.08
2023-02-16T12:51:52.249Z,40.10
2023-02-16T13:00:59.775Z,40.23
2023-02-16T13:04:03.796Z,40.28
2023-02-16T13:06:53.199Z,40.29
2023-02-16T13:09:55.144Z,40.22
2023-02-16T13:12:40.818Z,40.30
2023-02-16T13:15:22.935Z,40.45
2023-02-16T13:17:57.115Z,40.64
2023-02-16T13:20:26.364Z,40.62
2023-02-16T13:23:21.042Z,40.48
2023-02-16T13:26:18.196Z,40.41
2023-02-16T13:29:15.517Z,40.49
2023-02-16T13:31:45.253Z,40.67
2023-02-16T13:34:46.628Z,40.83
2023-02-16T13:37:38.368Z,40.63
2023-02-16T13:40:10.826Z,40.47
2023-02-16T13:42:59.576Z,40.59
2023-02-16T13:45:28.360Z,40.58
2023-02-16T13:47:55.008Z,40.60
2023-02-16T13:50:22.240Z,40.50
2023-02-16T13:52:48.964Z,40.67
2023-02-16T13:55:22.875Z,40.77
2023-02-16T13:57:50.725Z,41.01
2023-02-16T14:00:35.552Z,40.69
2023-02-16T14:03:03.407Z,40.68
2023-02-16T14:05:35.179Z,41.03
2023-02-16T14:08:21.761Z,40.79
2023-02-16T14:10:54.321Z,40.80
2023-02-16T14:13:26.081Z,41.01
2023-02-16T14:15:53.298Z,41.03
2023-02-16T14:18:41.196Z,40.92
2023-02-16T14:21:18.697Z,41.01
2023-02-16T14:23:46.279Z,41.00
2023-02-16T14:26:14.926Z,40.86
2023-02-16T14:29:03.028Z,40.94
2023-02-16T14:31:29.673Z,40.93
2023-02-16T14:34:18.493Z,40.95
2023-02-16T14:37:16.437Z,40.88
2023-02-16T14:40:04.117Z,40.85
2023-02-16T14:42:34.133Z,41.27
2023-02-16T14:45:09.797Z,40.94
2023-02-16T14:47:42.452Z,41.16
2023-02-16T14:50:24.312Z,41.11
2023-02-16T14:53:28.416Z,41.05
2023-02-16T14:56:14.553Z,41.20
2023-02-16T14:59:02.136Z,41.17
2023-02-16T15:01:28.906Z,41.15
2023-02-16T15:03:56.328Z,41.10
2023-02-16T15:06:25.737Z,41.14
2023-02-16T15:08:58.329Z,41.01
2023-02-16T15:11:35.914Z,41.07
2023-02-16T15:14:09.648Z,41.02
2023-02-16T15:16:38.697Z,41.12
2023-02-16T15:19:09.513Z,41.07
2023-02-16T15:21:36.122Z,41.24
2023-02-16T15:42:56.859Z,41.60
2023-02-16T15:45:34.198Z,41.49
2023-02-16T15:48:15.340Z,41.55
2023-02-16T15:50:42.910Z,41.41
2023-02-16T15:53:13.780Z,41.38
2023-02-16T15:55:45.033Z,41.43
2023-02-16T15:58:12.512Z,41.29
2023-02-16T16:00:40.473Z,41.53
2023-02-16T16:03:11.802Z,41.44
2023-02-16T16:05:42.021Z,41.23
2023-02-16T16:08:12.752Z,41.37
2023-02-16T16:10:42.027Z,41.55
2023-02-16T16:13:17.347Z,41.63
2023-02-16T16:15:45.318Z,41.59
2023-02-16T16:18:39.147Z,41.52
2023-02-16T16:21:13.525Z,41.74
2023-02-16T16:23:40.142Z,41.60
2023-02-16T16:26:17.552Z,41.65
2023-02-16T16:28:44.098Z,41.85
2023-02-16T16:31:23.485Z,41.63
2023-02-16T16:34:07.480Z,41.75
2023-02-16T16:36:54.741Z,41.84
2023-02-16T16:39:42.864Z,41.78
2023-02-16T16:42:18.158Z,41.90
2023-02-16T16:45:01.912Z,41.88
2023-02-16T16:47:39.781Z,41.97
2023-02-16T16:50:15.254Z,41.94
2023-02-16T16:52:43.658Z,41.97
2023-02-16T16:55:19.285Z,42.16
2023-02-16T16:57:46.515Z,41.92
2023-02-16T17:00:13.718Z,42.09
2023-02-16T17:02:40.466Z,42.26
2023-02-16T17:05:07.582Z,42.04
2023-02-16T17:07:34.136Z,42.22
2023-02-16T17:10:00.897Z,42.21
2023-02-16T17:12:31.149Z,42.00
2023-02-16T17:14:57.699Z,42.04
2023-02-16T17:17:24.219Z,41.85
2023-02-16T17:19:50.803Z,42.01
2023-02-16T17:22:20.519Z,42.07
2023-02-16T17:24:47.167Z,42.01
2023-02-16T17:27:13.771Z,42.45
2023-02-16T17:29:42.787Z,42.38
2023-02-16T17:32:09.414Z,42.36
2023-02-16T17:34:36.060Z,42.50
2023-02-16T17:37:03.968Z,42.45
2023-02-16T17:39:30.819Z,42.54
2023-02-16T17:41:57.824Z,42.52
2023-02-16T17:44:24.375Z,42.51
2023-02-16T17:46:50.925Z,42.30
2023-02-16T17:49:17.448Z,43.01
2023-02-16T17:51:43.990Z,42.79
2023-02-16T17:54:10.473Z,43.15
2023-02-16T17:56:39.533Z,42.89
2023-02-16T17:59:06.323Z,42.81
2023-02-16T18:01:35.848Z,42.86
2023-02-16T18:04:04.103Z,43.14
2023-02-16T18:06:30.641Z,42.69
2023-02-16T18:08:57.165Z,42.95
2023-02-16T18:11:23.734Z,42.94
2023-02-16T18:13:50.512Z,42.83
2023-02-16T18:16:19.018Z,43.17
2023-02-16T18:18:45.612Z,42.96
2023-02-16T18:21:12.168Z,42.77
2023-02-16T18:23:38.821Z,42.94
2023-02-16T18:26:05.698Z,42.78
2023-02-16T18:28:33.269Z,43.02
2023-02-16T18:31:00.159Z,43.24
2023-02-16T18:33:26.805Z,43.30
2023-02-16T18:35:55.530Z,43.33
2023-02-16T18:38:22.364Z,43.50
2023-02-16T18:40:50.945Z,43.34
2023-02-16T18:43:17.818Z,43.62
2023-02-16T18:45:44.485Z,43.38
2023-02-16T18:48:11.366Z,43.31
2023-02-16T18:50:37.916Z,43.53
2023-02-16T18:53:04.568Z,43.83
2023-02-16T18:55:33.911Z,43.44
2023-02-16T18:58:03.216Z,43.80
2023-02-16T19:00:29.874Z,43.74
2023-02-16T19:02:57.051Z,43.44
2023-02-16T19:05:23.829Z,43.53
2023-02-16T19:07:50.592Z,43.90
2023-02-16T19:10:17.290Z,43.75
2023-02-16T19:12:43.986Z,43.66
2023-02-16T19:15:11.046Z,43.79
2023-02-16T19:17:38.736Z,43.71
2023-02-16T19:20:09.974Z,43.62
2023-02-16T19:22:40.144Z,43.49
2023-02-16T19:25:09.847Z,43.39
2023-02-16T19:27:42.352Z,43.72
2023-02-16T19:30:09.359Z,43.85
2023-02-16T19:32:36.725Z,43.75
2023-02-16T19:35:03.798Z,44.00
2023-02-16T19:37:30.666Z,43.76
2023-02-16T19:39:57.276Z,44.02
2023-02-16T19:42:25.432Z,43.87
2023-02-16T19:44:52.135Z,43.83
2023-02-16T19:47:21.199Z,43.61
2023-02-16T19:49:47.864Z,43.79
2023-02-16T19:52:14.546Z,43.88
2023-02-16T19:54:41.483Z,43.83
2023-02-16T19:57:10.055Z,43.91
2023-02-16T19:59:36.756Z,43.57
2023-02-16T20:02:03.683Z,43.80
2023-02-16T20:04:33.290Z,43.83
2023-02-16T20:06:59.869Z,43.74
2023-02-16T20:09:26.632Z,44.10
2023-02-16T20:11:53.382Z,44.13
2023-02-16T20:14:20.084Z,44.03
2023-02-16T20:16:48.656Z,43.66
2023-02-16T20:19:15.359Z,43.77
2023-02-16T20:21:44.197Z,43.71
2023-02-16T20:24:10.944Z,43.80
2023-02-16T20:26:43.001Z,43.54
2023-02-16T20:29:10.954Z,43.45
2023-02-16T20:31:44.748Z,43.21
2023-02-16T20:34:11.523Z,43.83
2023-02-16T20:36:40.213Z,43.65
2023-02-16T20:39:09.851Z,43.71
2023-02-16T20:41:36.638Z,43.54
2023-02-16T20:44:03.976Z,43.53
2023-02-16T20:46:30.751Z,43.69
2023-02-16T20:49:00.286Z,43.70
2023-02-16T20:51:32.867Z,43.80
2023-02-16T20:54:02.955Z,43.90
2023-02-16T20:56:29.877Z,43.86
2023-02-16T20:58:56.903Z,43.96
2023-02-16T21:01:37.199Z,43.88
2023-02-16T21:04:05.510Z,44.13
2023-02-16T21:06:32.235Z,43.46
2023-02-16T21:08:58.904Z,44.00
2023-02-16T21:11:25.683Z,44.00
2023-02-16T21:13:52.409Z,43.95
2023-02-16T21:16:24.850Z,43.88
2023-02-16T21:18:51.489Z,43.46
2023-02-16T21:21:18.054Z,43.93
2023-02-16T21:23:50.013Z,43.95
2023-02-16T21:26:16.968Z,44.05
2023-02-16T21:28:43.660Z,43.79
2023-02-16T21:31:13.017Z,43.94
2023-02-16T21:33:39.703Z,44.11
2023-02-16T21:36:13.950Z,44.01
2023-02-16T21:38:42.131Z,44.07
2023-02-16T21:41:29.252Z,43.88
2023-02-16T21:44:00.727Z,44.20
2023-02-16T21:46:32.421Z,44.29
2023-02-16T21:49:01.184Z,44.35
2023-02-16T21:51:32.753Z,44.13
2023-02-16T21:53:59.438Z,44.17
2023-02-16T21:56:33.713Z,44.24
2023-02-16T21:59:00.375Z,44.44
2023-02-16T22:01:30.042Z,44.20
2023-02-16T22:03:59.343Z,44.18
2023-02-16T22:06:37.710Z,44.08
2023-02-16T22:09:06.276Z,44.21
2023-02-16T22:11:32.901Z,44.23
2023-02-16T22:14:00.141Z,44.20
2023-02-16T22:16:27.495Z,44.56
2023-02-16T22:19:01.411Z,43.97
2023-02-16T22:21:28.478Z,44.05
2023-02-16T22:23:55.373Z,44.42
2023-02-16T22:26:26.502Z,44.14
2023-02-16T22:28:53.287Z,44.22
2023-02-16T22:31:20.662Z,44.22
2023-02-16T22:33:47.403Z,44.21
2023-02-16T22:36:15.003Z,44.37
2023-02-16T22:38:49.916Z,44.26
2023-02-16T22:41:16.623Z,44.15
2023-02-16T22:43:43.537Z,44.21
2023-02-16T22:46:14.370Z,44.29
2023-02-16T22:48:41.143Z,44.27
2023-02-16T22:51:11.484Z,44.41
2023-02-16T22:53:40.394Z,44.34
2023-02-16T22:56:08.316Z,44.19
2023-02-16T22:58:35.224Z,44.13
2023-02-16T23:01:01.950Z,44.34
2023-02-16T23:03:28.664Z,44.06
2023-02-16T23:05:57.577Z,44.61
2023-02-16T23:08:24.335Z,43.90
2023-02-16T23:11:00.031Z,44.49
2023-02-16T23:13:31.431Z,44.27
2023-02-16T23:16:02.532Z,44.23
2023-02-16T23:18:32.332Z,44.30
2023-02-16T23:21:09.127Z,44.36
2023-02-16T23:23:36.441Z,44.15
2023-02-16T23:26:05.018Z,44.32
2023-02-16T23:28:31.762Z,44.25
2023-02-16T23:30:58.619Z,44.15
2023-02-16T23:33:25.318Z,44.14
2023-02-16T23:35:57.527Z,44.13
2023-02-16T23:38:24.236Z,44.15
2023-02-16T23:41:04.291Z,44.46
2023-02-16T23:43:31.059Z,44.23
2023-02-16T23:45:57.894Z,44.49
2023-02-16T23:48:24.577Z,44.67
2023-02-16T23:50:51.350Z,44.40
2023-02-16T23:53:21.404Z,44.09
2023-02-16T23:56:00.622Z,44.22
2023-02-16T23:58:29.041Z,44.30
